sensor_id;sensor_type;location;lat;lon;timestamp;pressure;altitude;pressure_sealevel;temperature;humidity
70343;BME280;57767;42.068;24.752;2022-11-15T00:00:52;99599.53;;;7.44;73.58
70343;BME280;57767;42.068;24.752;2022-11-15T00:01:54;99605.09;;;7.41;73.55
70343;BME280;57767;42.068;24.752;2022-11-15T00:02:55;99605.78;;;7.35;73.80
70343;BME280;57767;42.068;24.752;2022-11-15T00:03:57;99603.47;;;7.40;73.31
70343;BME280;57767;42.068;24.752;2022-11-15T00:04:59;99598.72;;;7.35;73.12
70343;BME280;57767;42.068;24.752;2022-11-15T00:06:02;99593.16;;;7.30;73.44
70343;BME280;57767;42.068;24.752;2022-11-15T00:07:04;99602.97;;;7.36;73.36
70343;BME280;57767;42.068;24.752;2022-11-15T00:08:06;99602.34;;;7.34;73.18
70343;BME280;57767;42.068;24.752;2022-11-15T00:09:08;99600.06;;;7.31;73.77
70343;BME280;57767;42.068;24.752;2022-11-15T00:10:09;99601.34;;;7.35;73.58
70343;BME280;57767;42.068;24.752;2022-11-15T00:11:12;99610.22;;;7.34;73.85
70343;BME280;57767;42.068;24.752;2022-11-15T00:12:14;99605.59;;;7.36;74.13
70343;BME280;57767;42.068;24.752;2022-11-15T00:13:15;99600.72;;;7.33;74.19
70343;BME280;57767;42.068;24.752;2022-11-15T00:14:17;99606.94;;;7.32;74.18
70343;BME280;57767;42.068;24.752;2022-11-15T00:15:19;99607.28;;;7.29;74.36
70343;BME280;57767;42.068;24.752;2022-11-15T00:16:21;99612.53;;;7.29;74.56
70343;BME280;57767;42.068;24.752;2022-11-15T00:17:23;99602.84;;;7.30;74.62
70343;BME280;57767;42.068;24.752;2022-11-15T00:18:24;99606.13;;;7.32;74.69
70343;BME280;57767;42.068;24.752;2022-11-15T00:19:26;99605.47;;;7.30;74.60
70343;BME280;57767;42.068;24.752;2022-11-15T00:20:28;99600.22;;;7.30;74.91
70343;BME280;57767;42.068;24.752;2022-11-15T00:21:30;99584.13;;;7.25;75.20
70343;BME280;57767;42.068;24.752;2022-11-15T00:22:32;99601.03;;;7.30;75.50
70343;BME280;57767;42.068;24.752;2022-11-15T00:23:34;99597.63;;;7.22;76.03
70343;BME280;57767;42.068;24.752;2022-11-15T00:24:36;99597.78;;;7.20;76.58
70343;BME280;57767;42.068;24.752;2022-11-15T00:25:38;99590.53;;;7.22;76.71
70343;BME280;57767;42.068;24.752;2022-11-15T00:26:40;99600.22;;;7.30;76.86
70343;BME280;57767;42.068;24.752;2022-11-15T00:27:41;99601.16;;;7.37;76.70
70343;BME280;57767;42.068;24.752;2022-11-15T00:28:43;99596.91;;;7.36;76.85
70343;BME280;57767;42.068;24.752;2022-11-15T00:29:45;99570.53;;;7.21;76.74
70343;BME280;57767;42.068;24.752;2022-11-15T00:30:47;99602.00;;;7.37;77.17
70343;BME280;57767;42.068;24.752;2022-11-15T00:31:48;99596.41;;;7.40;77.06
70343;BME280;57767;42.068;24.752;2022-11-15T00:32:50;99582.16;;;7.27;77.25
70343;BME280;57767;42.068;24.752;2022-11-15T00:33:52;99598.38;;;7.38;77.23
70343;BME280;57767;42.068;24.752;2022-11-15T00:34:53;99589.38;;;7.33;77.61
70343;BME280;57767;42.068;24.752;2022-11-15T00:36:21;99596.59;;;7.31;77.85
70343;BME280;57767;42.068;24.752;2022-11-15T00:37:23;99593.66;;;7.34;77.85
70343;BME280;57767;42.068;24.752;2022-11-15T00:38:25;99594.59;;;7.41;77.58
70343;BME280;57767;42.068;24.752;2022-11-15T00:39:26;99601.97;;;7.45;77.77
70343;BME280;57767;42.068;24.752;2022-11-15T00:40:29;99596.38;;;7.48;77.33
70343;BME280;57767;42.068;24.752;2022-11-15T00:41:31;99586.88;;;7.39;77.38
70343;BME280;57767;42.068;24.752;2022-11-15T00:42:32;99595.59;;;7.40;77.18
70343;BME280;57767;42.068;24.752;2022-11-15T00:43:34;99599.03;;;7.40;77.37
70343;BME280;57767;42.068;24.752;2022-11-15T00:44:36;99595.09;;;7.44;77.02
70343;BME280;57767;42.068;24.752;2022-11-15T00:45:38;99588.84;;;7.45;76.81
70343;BME280;57767;42.068;24.752;2022-11-15T00:46:39;99586.88;;;7.39;77.05
70343;BME280;57767;42.068;24.752;2022-11-15T00:47:44;99586.56;;;7.42;77.24
70343;BME280;57767;42.068;24.752;2022-11-15T00:48:46;99563.28;;;7.31;77.20
70343;BME280;57767;42.068;24.752;2022-11-15T00:49:48;99591.75;;;7.50;76.88
70343;BME280;57767;42.068;24.752;2022-11-15T00:50:50;99586.34;;;7.52;76.73
70343;BME280;57767;42.068;24.752;2022-11-15T00:51:51;99591.09;;;7.57;76.97
70343;BME280;57767;42.068;24.752;2022-11-15T00:52:53;99592.56;;;7.59;76.48
70343;BME280;57767;42.068;24.752;2022-11-15T00:53:55;99585.16;;;7.63;76.29
70343;BME280;57767;42.068;24.752;2022-11-15T00:54:56;99584.81;;;7.66;76.14
70343;BME280;57767;42.068;24.752;2022-11-15T00:55:58;99586.28;;;7.68;75.78
70343;BME280;57767;42.068;24.752;2022-11-15T00:57:00;99578.22;;;7.70;75.57
70343;BME280;57767;42.068;24.752;2022-11-15T00:58:02;99577.41;;;7.69;75.61
70343;BME280;57767;42.068;24.752;2022-11-15T00:59:03;99583.44;;;7.78;75.47
70343;BME280;57767;42.068;24.752;2022-11-15T01:00:06;99581.78;;;7.77;74.92
70343;BME280;57767;42.068;24.752;2022-11-15T01:01:13;99585.41;;;7.84;74.93
70343;BME280;57767;42.068;24.752;2022-11-15T01:02:15;99581.41;;;7.88;74.32
70343;BME280;57767;42.068;24.752;2022-11-15T01:03:17;99591.59;;;7.91;74.49
70343;BME280;57767;42.068;24.752;2022-11-15T01:04:19;99587.97;;;7.92;74.17
70343;BME280;57767;42.068;24.752;2022-11-15T01:05:21;99577.78;;;7.89;74.32
70343;BME280;57767;42.068;24.752;2022-11-15T01:06:22;99588.63;;;7.94;74.74
70343;BME280;57767;42.068;24.752;2022-11-15T01:07:24;99583.19;;;7.96;74.55
70343;BME280;57767;42.068;24.752;2022-11-15T01:08:26;99582.38;;;7.95;74.01
70343;BME280;57767;42.068;24.752;2022-11-15T01:09:27;99584.00;;;7.96;74.28
70343;BME280;57767;42.068;24.752;2022-11-15T01:10:29;99582.00;;;7.98;74.15
70343;BME280;57767;42.068;24.752;2022-11-15T01:11:31;99584.47;;;8.00;73.68
70343;BME280;57767;42.068;24.752;2022-11-15T01:12:33;99582.47;;;8.02;73.73
70343;BME280;57767;42.068;24.752;2022-11-15T01:13:36;99584.13;;;8.03;73.79
70343;BME280;57767;42.068;24.752;2022-11-15T01:14:38;99586.41;;;8.06;73.71
70343;BME280;57767;42.068;24.752;2022-11-15T01:15:40;99578.03;;;8.02;73.29
70343;BME280;57767;42.068;24.752;2022-11-15T01:16:42;99580.97;;;8.07;73.00
70343;BME280;57767;42.068;24.752;2022-11-15T01:17:44;99569.97;;;8.04;73.16
70343;BME280;57767;42.068;24.752;2022-11-15T01:18:46;99583.28;;;8.10;73.14
70343;BME280;57767;42.068;24.752;2022-11-15T01:19:47;99578.00;;;8.10;72.95
70343;BME280;57767;42.068;24.752;2022-11-15T01:20:49;99578.00;;;8.10;73.14
70343;BME280;57767;42.068;24.752;2022-11-15T01:21:51;99579.63;;;8.11;73.01
70343;BME280;57767;42.068;24.752;2022-11-15T01:22:53;99572.44;;;8.05;73.06
70343;BME280;57767;42.068;24.752;2022-11-15T01:23:56;99573.75;;;8.09;73.01
70343;BME280;57767;42.068;24.752;2022-11-15T01:24:58;99570.28;;;8.09;73.40
70343;BME280;57767;42.068;24.752;2022-11-15T01:26:01;99577.81;;;8.12;73.24
70343;BME280;57767;42.068;24.752;2022-11-15T01:27:03;99571.72;;;8.11;73.11
70343;BME280;57767;42.068;24.752;2022-11-15T01:28:04;99568.47;;;8.09;72.84
70343;BME280;57767;42.068;24.752;2022-11-15T01:29:06;99577.38;;;8.08;73.15
70343;BME280;57767;42.068;24.752;2022-11-15T01:30:08;99566.69;;;8.02;72.85
70343;BME280;57767;42.068;24.752;2022-11-15T01:31:18;99567.19;;;8.05;73.21
70343;BME280;57767;42.068;24.752;2022-11-15T01:32:20;99576.53;;;8.08;72.75
70343;BME280;57767;42.068;24.752;2022-11-15T01:33:22;99573.59;;;8.03;73.06
70343;BME280;57767;42.068;24.752;2022-11-15T01:34:23;99569.81;;;8.05;73.30
70343;BME280;57767;42.068;24.752;2022-11-15T01:35:25;99573.25;;;8.06;73.40
70343;BME280;57767;42.068;24.752;2022-11-15T01:36:27;99575.25;;;8.04;73.65
70343;BME280;57767;42.068;24.752;2022-11-15T01:37:28;99571.84;;;7.95;73.64
70343;BME280;57767;42.068;24.752;2022-11-15T01:38:30;99573.66;;;7.95;73.67
70343;BME280;57767;42.068;24.752;2022-11-15T01:39:32;99561.91;;;7.82;73.61
70343;BME280;57767;42.068;24.752;2022-11-15T01:40:34;99564.53;;;7.82;73.72
70343;BME280;57767;42.068;24.752;2022-11-15T01:41:35;99567.97;;;7.83;73.63
70343;BME280;57767;42.068;24.752;2022-11-15T01:42:37;99564.16;;;7.85;73.48
70343;BME280;57767;42.068;24.752;2022-11-15T01:43:39;99565.63;;;7.88;73.47
70343;BME280;57767;42.068;24.752;2022-11-15T01:44:47;99562.00;;;7.89;73.36
70343;BME280;57767;42.068;24.752;2022-11-15T01:46:36;99562.25;;;7.79;73.76
70343;BME280;57767;42.068;24.752;2022-11-15T01:47:43;99555.56;;;7.69;73.84
70343;BME280;57767;42.068;24.752;2022-11-15T01:48:49;99552.28;;;7.67;73.85
70343;BME280;57767;42.068;24.752;2022-11-15T01:50:02;99560.34;;;7.65;74.46
70343;BME280;57767;42.068;24.752;2022-11-15T01:51:09;99544.25;;;7.60;74.18
70343;BME280;57767;42.068;24.752;2022-11-15T01:52:16;99557.88;;;7.64;74.21
70343;BME280;57767;42.068;24.752;2022-11-15T01:53:21;99554.75;;;7.60;74.65
70343;BME280;57767;42.068;24.752;2022-11-15T01:54:25;99551.69;;;7.48;74.52
70343;BME280;57767;42.068;24.752;2022-11-15T01:55:28;99556.13;;;7.48;74.40
70343;BME280;57767;42.068;24.752;2022-11-15T01:56:33;99550.72;;;7.49;74.84
70343;BME280;57767;42.068;24.752;2022-11-15T01:57:38;99552.50;;;7.57;74.71
70343;BME280;57767;42.068;24.752;2022-11-15T01:58:41;99563.13;;;7.64;74.40
70343;BME280;57767;42.068;24.752;2022-11-15T01:59:44;99557.38;;;7.68;74.32
70343;BME280;57767;42.068;24.752;2022-11-15T02:00:47;99558.84;;;7.71;73.89
70343;BME280;57767;42.068;24.752;2022-11-15T02:01:51;99558.47;;;7.74;73.94
70343;BME280;57767;42.068;24.752;2022-11-15T02:02:53;99555.84;;;7.74;73.60
70343;BME280;57767;42.068;24.752;2022-11-15T02:04:05;99560.59;;;7.78;73.60
70343;BME280;57767;42.068;24.752;2022-11-15T02:05:09;99558.13;;;7.77;73.44
70343;BME280;57767;42.068;24.752;2022-11-15T02:06:11;99549.09;;;7.79;73.56
70343;BME280;57767;42.068;24.752;2022-11-15T02:07:17;99554.28;;;7.87;73.76
70343;BME280;57767;42.068;24.752;2022-11-15T02:08:19;99553.47;;;7.87;73.70
70343;BME280;57767;42.068;24.752;2022-11-15T02:09:22;99568.75;;;7.91;73.66
70343;BME280;57767;42.068;24.752;2022-11-15T02:10:24;99562.66;;;7.91;73.60
70343;BME280;57767;42.068;24.752;2022-11-15T02:11:26;99559.22;;;7.90;73.83
70343;BME280;57767;42.068;24.752;2022-11-15T02:12:28;99555.59;;;7.91;73.67
70343;BME280;57767;42.068;24.752;2022-11-15T02:13:32;99560.69;;;7.93;73.41
70343;BME280;57767;42.068;24.752;2022-11-15T02:14:36;99564.13;;;7.94;73.60
70343;BME280;57767;42.068;24.752;2022-11-15T02:15:46;99557.88;;;7.95;74.00
70343;BME280;57767;42.068;24.752;2022-11-15T02:17:02;99555.91;;;7.97;73.42
70343;BME280;57767;42.068;24.752;2022-11-15T02:18:24;99558.69;;;7.95;73.48
70343;BME280;57767;42.068;24.752;2022-11-15T02:21:47;99544.25;;;7.91;73.48
70343;BME280;57767;42.068;24.752;2022-11-15T02:27:38;99556.72;;;7.97;73.72
70343;BME280;57767;42.068;24.752;2022-11-15T02:29:01;99547.38;;;7.95;73.79
70343;BME280;57767;42.068;24.752;2022-11-15T02:35:57;99547.81;;;7.98;73.65
70343;BME280;57767;42.068;24.752;2022-11-15T02:37:11;99556.19;;;8.02;74.08
70343;BME280;57767;42.068;24.752;2022-11-15T02:38:24;99546.47;;;8.02;73.67
70343;BME280;57767;42.068;24.752;2022-11-15T02:39:58;99552.38;;;8.04;73.71
70343;BME280;57767;42.068;24.752;2022-11-15T02:41:11;99548.78;;;8.05;73.36
70343;BME280;57767;42.068;24.752;2022-11-15T02:42:19;99556.31;;;8.08;72.97
70343;BME280;57767;42.068;24.752;2022-11-15T02:44:15;99555.25;;;7.95;74.16
70343;BME280;57767;42.068;24.752;2022-11-15T02:45:27;99559.38;;;7.89;74.61
70343;BME280;57767;42.068;24.752;2022-11-15T02:46:51;99559.09;;;7.84;74.63
70343;BME280;57767;42.068;24.752;2022-11-15T02:48:14;99553.38;;;7.80;74.80
70343;BME280;57767;42.068;24.752;2022-11-15T02:49:17;99545.34;;;7.74;75.01
70343;BME280;57767;42.068;24.752;2022-11-15T02:50:21;99543.09;;;7.63;75.17
70343;BME280;57767;42.068;24.752;2022-11-15T02:51:25;99546.53;;;7.63;75.40
70343;BME280;57767;42.068;24.752;2022-11-15T02:52:27;99548.88;;;7.58;75.50
70343;BME280;57767;42.068;24.752;2022-11-15T02:53:29;99546.75;;;7.53;75.73
70343;BME280;57767;42.068;24.752;2022-11-15T02:54:33;99543.19;;;7.46;76.09
70343;BME280;57767;42.068;24.752;2022-11-15T02:55:37;99543.34;;;7.45;75.91
70343;BME280;57767;42.068;24.752;2022-11-15T02:56:41;99543.69;;;7.42;76.02
70343;BME280;57767;42.068;24.752;2022-11-15T02:57:51;99546.97;;;7.44;76.21
70343;BME280;57767;42.068;24.752;2022-11-15T03:00:09;99542.53;;;7.44;75.86
70343;BME280;57767;42.068;24.752;2022-11-15T03:03:46;99540.47;;;7.24;76.95
70343;BME280;57767;42.068;24.752;2022-11-15T03:06:09;99537.19;;;7.30;76.81
70343;BME280;57767;42.068;24.752;2022-11-15T03:09:55;99535.16;;;7.40;77.07
70343;BME280;57767;42.068;24.752;2022-11-15T03:11:14;99534.16;;;7.41;76.82
70343;BME280;57767;42.068;24.752;2022-11-15T03:13:46;99545.81;;;7.46;76.40
70343;BME280;57767;42.068;24.752;2022-11-15T03:16:03;99534.78;;;7.51;75.88
70343;BME280;57767;42.068;24.752;2022-11-15T03:17:30;99533.75;;;7.60;76.04
70343;BME280;57767;42.068;24.752;2022-11-15T03:18:37;99538.19;;;7.60;75.85
70343;BME280;57767;42.068;24.752;2022-11-15T03:19:45;99543.75;;;7.65;76.02
70343;BME280;57767;42.068;24.752;2022-11-15T03:20:48;99542.59;;;7.67;75.61
70343;BME280;57767;42.068;24.752;2022-11-15T03:21:52;99532.41;;;7.64;75.77
70343;BME280;57767;42.068;24.752;2022-11-15T03:22:58;99541.88;;;7.73;75.54
70343;BME280;57767;42.068;24.752;2022-11-15T03:24:03;99544.00;;;7.78;75.31
70343;BME280;57767;42.068;24.752;2022-11-15T03:25:11;99542.03;;;7.80;75.01
70343;BME280;57767;42.068;24.752;2022-11-15T03:26:16;99539.06;;;7.83;74.99
70343;BME280;57767;42.068;24.752;2022-11-15T03:27:21;99530.19;;;7.84;75.00
70343;BME280;57767;42.068;24.752;2022-11-15T03:28:38;99540.63;;;7.92;75.13
70343;BME280;57767;42.068;24.752;2022-11-15T03:29:45;99526.84;;;7.90;74.72
70343;BME280;57767;42.068;24.752;2022-11-15T03:30:49;99528.31;;;7.93;74.54
70343;BME280;57767;42.068;24.752;2022-11-15T03:31:57;99529.41;;;7.98;74.67
70343;BME280;57767;42.068;24.752;2022-11-15T03:33:02;99527.44;;;8.00;74.38
70343;BME280;57767;42.068;24.752;2022-11-15T03:34:07;99528.06;;;8.02;74.17
70343;BME280;57767;42.068;24.752;2022-11-15T03:35:14;99532.00;;;8.06;73.71
70343;BME280;57767;42.068;24.752;2022-11-15T03:36:19;99532.66;;;8.08;74.12
70343;BME280;57767;42.068;24.752;2022-11-15T03:37:25;99524.09;;;8.06;73.78
70343;BME280;57767;42.068;24.752;2022-11-15T03:38:31;99529.03;;;8.09;73.50
70343;BME280;57767;42.068;24.752;2022-11-15T03:39:34;99531.13;;;8.14;73.69
70343;BME280;57767;42.068;24.752;2022-11-15T03:40:49;99520.75;;;8.12;73.46
70343;BME280;57767;42.068;24.752;2022-11-15T03:45:23;99521.38;;;8.22;73.10
70343;BME280;57767;42.068;24.752;2022-11-15T03:48:05;99521.16;;;8.24;72.82
70343;BME280;57767;42.068;24.752;2022-11-15T03:49:23;99515.09;;;8.23;72.53
70343;BME280;57767;42.068;24.752;2022-11-15T03:50:26;99515.09;;;8.23;72.76
70343;BME280;57767;42.068;24.752;2022-11-15T03:51:29;99510.63;;;8.24;72.46
70343;BME280;57767;42.068;24.752;2022-11-15T03:52:33;99512.94;;;8.27;72.28
70343;BME280;57767;42.068;24.752;2022-11-15T03:53:35;99506.19;;;8.24;72.34
70343;BME280;57767;42.068;24.752;2022-11-15T03:54:47;99508.47;;;8.27;72.63
70343;BME280;57767;42.068;24.752;2022-11-15T03:55:49;99504.88;;;8.28;72.23
70343;BME280;57767;42.068;24.752;2022-11-15T03:56:51;99496.66;;;8.23;72.24
70343;BME280;57767;42.068;24.752;2022-11-15T03:57:55;99504.88;;;8.28;72.48
70343;BME280;57767;42.068;24.752;2022-11-15T03:58:58;99501.59;;;8.26;72.83
70343;BME280;57767;42.068;24.752;2022-11-15T04:00:00;99500.41;;;8.29;72.72
70343;BME280;57767;42.068;24.752;2022-11-15T04:01:01;99506.50;;;8.30;72.58
70343;BME280;57767;42.068;24.752;2022-11-15T04:02:03;99502.88;;;8.31;72.70
70343;BME280;57767;42.068;24.752;2022-11-15T04:03:05;99504.53;;;8.32;72.26
70343;BME280;57767;42.068;24.752;2022-11-15T04:04:08;99508.81;;;8.33;72.57
70343;BME280;57767;42.068;24.752;2022-11-15T04:05:10;99490.88;;;8.28;72.57
70343;BME280;57767;42.068;24.752;2022-11-15T04:06:12;99501.75;;;8.33;72.51
70343;BME280;57767;42.068;24.752;2022-11-15T04:07:13;99501.75;;;8.33;72.65
70343;BME280;57767;42.068;24.752;2022-11-15T04:08:15;99503.56;;;8.33;72.66
70343;BME280;57767;42.068;24.752;2022-11-15T04:09:17;99506.19;;;8.33;72.57
70343;BME280;57767;42.068;24.752;2022-11-15T04:10:19;99503.56;;;8.33;72.52
70343;BME280;57767;42.068;24.752;2022-11-15T04:11:21;99501.06;;;8.31;72.64
70343;BME280;57767;42.068;24.752;2022-11-15T04:12:22;99503.38;;;8.34;72.48
70343;BME280;57767;42.068;24.752;2022-11-15T04:13:33;99496.47;;;8.33;72.36
70343;BME280;57767;42.068;24.752;2022-11-15T04:14:35;99492.03;;;8.34;72.35
70343;BME280;57767;42.068;24.752;2022-11-15T04:15:37;99496.16;;;8.28;72.51
70343;BME280;57767;42.068;24.752;2022-11-15T04:16:38;99493.53;;;8.28;72.98
70343;BME280;57767;42.068;24.752;2022-11-15T04:17:55;99489.06;;;8.28;72.73
70343;BME280;57767;42.068;24.752;2022-11-15T04:18:57;99471.09;;;8.17;72.89
70343;BME280;57767;42.068;24.752;2022-11-15T04:20:23;99494.84;;;8.09;73.61
70343;BME280;57767;42.068;24.752;2022-11-15T04:21:43;99484.53;;;8.00;74.06
70343;BME280;57767;42.068;24.752;2022-11-15T04:23:06;99480.56;;;8.04;73.90
70343;BME280;57767;42.068;24.752;2022-11-15T04:24:27;99486.28;;;8.07;73.92
70343;BME280;57767;42.068;24.752;2022-11-15T04:25:29;99484.50;;;8.08;73.25
70343;BME280;57767;42.068;24.752;2022-11-15T04:26:33;99478.09;;;8.02;73.61
70343;BME280;57767;42.068;24.752;2022-11-15T04:27:35;99485.47;;;8.07;73.55
70343;BME280;57767;42.068;24.752;2022-11-15T04:28:37;99490.75;;;8.07;73.37
70343;BME280;57767;42.068;24.752;2022-11-15T04:29:58;99481.03;;;8.07;73.88
70343;BME280;57767;42.068;24.752;2022-11-15T04:31:00;99481.22;;;8.06;73.39
70343;BME280;57767;42.068;24.752;2022-11-15T04:32:06;99482.19;;;8.05;73.33
70343;BME280;57767;42.068;24.752;2022-11-15T04:33:08;99482.03;;;8.06;73.45
70343;BME280;57767;42.068;24.752;2022-11-15T04:34:09;99481.84;;;8.08;73.16
70343;BME280;57767;42.068;24.752;2022-11-15T04:35:11;99473.66;;;8.03;73.34
70343;BME280;57767;42.068;24.752;2022-11-15T04:36:13;99483.31;;;8.10;72.52
70343;BME280;57767;42.068;24.752;2022-11-15T04:37:33;99474.13;;;8.06;72.54
70343;BME280;57767;42.068;24.752;2022-11-15T04:38:37;99482.31;;;8.11;71.99
70343;BME280;57767;42.068;24.752;2022-11-15T04:39:39;99487.38;;;8.13;72.03
70343;BME280;57767;42.068;24.752;2022-11-15T04:40:41;99485.75;;;8.12;72.00
70343;BME280;57767;42.068;24.752;2022-11-15T04:41:43;99478.06;;;8.10;72.21
70343;BME280;57767;42.068;24.752;2022-11-15T04:42:45;99486.81;;;8.03;72.52
70343;BME280;57767;42.068;24.752;2022-11-15T04:43:46;99495.34;;;8.05;72.90
70343;BME280;57767;42.068;24.752;2022-11-15T04:44:48;99489.09;;;8.06;72.24
70343;BME280;57767;42.068;24.752;2022-11-15T04:45:50;99486.66;;;8.04;71.94
70343;BME280;57767;42.068;24.752;2022-11-15T04:46:51;99490.75;;;8.07;71.87
70343;BME280;57767;42.068;24.752;2022-11-15T04:47:53;99495.00;;;8.08;72.29
70343;BME280;57767;42.068;24.752;2022-11-15T04:48:55;99489.09;;;8.06;72.35
70343;BME280;57767;42.068;24.752;2022-11-15T04:49:59;99486.66;;;8.04;72.46
70343;BME280;57767;42.068;24.752;2022-11-15T04:51:01;99481.38;;;8.04;72.66
70343;BME280;57767;42.068;24.752;2022-11-15T04:52:03;99454.56;;;7.86;72.71
70343;BME280;57767;42.068;24.752;2022-11-15T04:53:05;99475.81;;;7.99;72.61
70343;BME280;57767;42.068;24.752;2022-11-15T04:54:07;99483.03;;;8.05;72.21
70343;BME280;57767;42.068;24.752;2022-11-15T04:55:10;99485.81;;;8.04;72.70
70343;BME280;57767;42.068;24.752;2022-11-15T04:56:12;99479.75;;;8.03;72.74
70343;BME280;57767;42.068;24.752;2022-11-15T04:57:14;99484.84;;;8.05;72.25
70343;BME280;57767;42.068;24.752;2022-11-15T04:58:16;99480.22;;;8.07;72.48
70343;BME280;57767;42.068;24.752;2022-11-15T04:59:17;99481.84;;;8.08;72.16
70343;BME280;57767;42.068;24.752;2022-11-15T05:00:19;99460.03;;;7.99;72.43
70343;BME280;57767;42.068;24.752;2022-11-15T05:01:21;99482.19;;;8.05;72.04
70343;BME280;57767;42.068;24.752;2022-11-15T05:02:23;99480.56;;;8.04;72.19
70343;BME280;57767;42.068;24.752;2022-11-15T05:03:24;99484.19;;;8.03;72.14
70343;BME280;57767;42.068;24.752;2022-11-15T05:04:52;99480.09;;;8.00;72.96
70343;BME280;57767;42.068;24.752;2022-11-15T05:05:54;99476.03;;;7.98;72.59
70343;BME280;57767;42.068;24.752;2022-11-15T05:06:55;99473.56;;;7.96;72.57
70343;BME280;57767;42.068;24.752;2022-11-15T05:07:57;99477.63;;;7.99;72.44
70343;BME280;57767;42.068;24.752;2022-11-15T05:08:59;99481.91;;;8.00;72.52
70343;BME280;57767;42.068;24.752;2022-11-15T05:10:01;99473.41;;;7.98;72.54
70343;BME280;57767;42.068;24.752;2022-11-15T05:11:02;99476.03;;;7.98;72.41
70343;BME280;57767;42.068;24.752;2022-11-15T05:12:04;99482.06;;;7.98;72.78
70343;BME280;57767;42.068;24.752;2022-11-15T05:13:06;99473.56;;;7.96;72.52
70343;BME280;57767;42.068;24.752;2022-11-15T05:14:08;99477.19;;;7.95;72.27
70343;BME280;57767;42.068;24.752;2022-11-15T05:15:09;99472.09;;;7.94;72.20
70343;BME280;57767;42.068;24.752;2022-11-15T05:16:11;99479.66;;;7.97;72.08
70343;BME280;57767;42.068;24.752;2022-11-15T05:17:13;99488.53;;;7.96;72.27
70343;BME280;57767;42.068;24.752;2022-11-15T05:18:14;99481.47;;;7.96;72.41
70343;BME280;57767;42.068;24.752;2022-11-15T05:19:23;99481.28;;;7.98;72.23
70343;BME280;57767;42.068;24.752;2022-11-15T05:20:25;99472.75;;;7.96;72.44
70343;BME280;57767;42.068;24.752;2022-11-15T05:21:27;99483.09;;;7.97;72.50
70343;BME280;57767;42.068;24.752;2022-11-15T05:22:28;99485.72;;;7.97;72.53
70343;BME280;57767;42.068;24.752;2022-11-15T05:23:30;99483.44;;;7.94;73.10
70343;BME280;57767;42.068;24.752;2022-11-15T05:24:32;99489.34;;;7.96;72.79
70343;BME280;57767;42.068;24.752;2022-11-15T05:25:36;99483.44;;;7.94;73.22
70343;BME280;57767;42.068;24.752;2022-11-15T05:26:37;99484.59;;;7.91;72.84
70343;BME280;57767;42.068;24.752;2022-11-15T05:27:39;99485.94;;;7.87;72.63
70343;BME280;57767;42.068;24.752;2022-11-15T05:28:41;99476.72;;;7.69;73.58
70343;BME280;57767;42.068;24.752;2022-11-15T05:29:42;99481.16;;;7.68;74.07
70343;BME280;57767;42.068;24.752;2022-11-15T05:30:44;99475.59;;;7.63;74.40
70343;BME280;57767;42.068;24.752;2022-11-15T05:31:46;99479.84;;;7.64;74.47
70343;BME280;57767;42.068;24.752;2022-11-15T05:32:48;99483.13;;;7.66;74.49
70343;BME280;57767;42.068;24.752;2022-11-15T05:33:51;99483.59;;;7.70;74.65
70343;BME280;57767;42.068;24.752;2022-11-15T05:34:54;99485.88;;;7.73;74.76
70343;BME280;57767;42.068;24.752;2022-11-15T05:36:04;99482.63;;;7.71;74.87
70343;BME280;57767;42.068;24.752;2022-11-15T05:37:07;99482.78;;;7.69;74.68
70343;BME280;57767;42.068;24.752;2022-11-15T05:38:09;99483.59;;;7.70;74.65
70343;BME280;57767;42.068;24.752;2022-11-15T05:39:10;99478.63;;;7.75;74.65
70343;BME280;57767;42.068;24.752;2022-11-15T05:40:12;99488.78;;;7.78;74.64
70343;BME280;57767;42.068;24.752;2022-11-15T05:41:15;99484.19;;;7.80;74.48
70343;BME280;57767;42.068;24.752;2022-11-15T05:42:18;99485.84;;;7.81;74.43
70343;BME280;57767;42.068;24.752;2022-11-15T05:43:21;99478.59;;;7.83;74.13
70343;BME280;57767;42.068;24.752;2022-11-15T05:44:23;99485.84;;;7.81;74.15
70343;BME280;57767;42.068;24.752;2022-11-15T05:45:27;99484.66;;;7.83;74.38
70343;BME280;57767;42.068;24.752;2022-11-15T05:46:29;99487.47;;;7.82;74.33
70343;BME280;57767;42.068;24.752;2022-11-15T05:47:32;99487.47;;;7.82;74.32
70343;BME280;57767;42.068;24.752;2022-11-15T05:48:36;99485.66;;;7.82;74.32
70343;BME280;57767;42.068;24.752;2022-11-15T05:49:40;99485.66;;;7.82;74.45
70343;BME280;57767;42.068;24.752;2022-11-15T05:50:46;99492.38;;;7.85;74.38
70343;BME280;57767;42.068;24.752;2022-11-15T05:51:48;99497.28;;;7.88;74.56
70343;BME280;57767;42.068;24.752;2022-11-15T05:52:51;99494.81;;;7.86;74.55
70343;BME280;57767;42.068;24.752;2022-11-15T05:53:53;99496.94;;;7.91;73.91
70343;BME280;57767;42.068;24.752;2022-11-15T05:54:58;99498.41;;;7.94;74.52
70343;BME280;57767;42.068;24.752;2022-11-15T05:56:00;99494.94;;;7.93;73.99
70343;BME280;57767;42.068;24.752;2022-11-15T05:57:03;99499.69;;;7.98;73.90
70343;BME280;57767;42.068;24.752;2022-11-15T05:58:05;99492.31;;;7.93;73.99
70343;BME280;57767;42.068;24.752;2022-11-15T05:59:08;99500.03;;;7.95;73.84
70343;BME280;57767;42.068;24.752;2022-11-15T06:00:10;99494.59;;;7.96;73.71
70343;BME280;57767;42.068;24.752;2022-11-15T06:01:12;99499.50;;;7.99;73.57
70343;BME280;57767;42.068;24.752;2022-11-15T06:02:14;99496.69;;;8.01;72.88
70343;BME280;57767;42.068;24.752;2022-11-15T06:03:16;99501.78;;;8.02;72.89
70343;BME280;57767;42.068;24.752;2022-11-15T06:04:18;99506.03;;;8.03;72.92
70343;BME280;57767;42.068;24.752;2022-11-15T06:05:19;99504.41;;;8.02;73.35
70343;BME280;57767;42.068;24.752;2022-11-15T06:06:21;99497.16;;;8.04;72.95
70343;BME280;57767;42.068;24.752;2022-11-15T06:07:23;99501.59;;;8.04;73.19
70343;BME280;57767;42.068;24.752;2022-11-15T06:08:25;99504.13;;;7.97;73.57
70343;BME280;57767;42.068;24.752;2022-11-15T06:09:26;99509.72;;;7.94;73.81
70343;BME280;57767;42.068;24.752;2022-11-15T06:10:28;99507.44;;;7.91;73.72